sensor_id;sensor_type;location;lat;lon;timestamp;P1;durP1;ratioP1;P2;durP2;ratioP2
2772;SDS011;1394;47.044;15.744;2022-12-29T00:01:00;27.17;;;4.60;;
2772;SDS011;1394;47.044;15.744;2022-12-29T00:03:28;26.50;;;4.00;;
2772;SDS011;1394;47.044;15.744;2022-12-29T00:05:56;26.47;;;3.70;;
2772;SDS011;1394;47.044;15.744;2022-12-29T00:08:27;26.83;;;3.90;;
2772;SDS011;1394;47.044;15.744;2022-12-29T00:11:05;26.37;;;3.37;;
2772;SDS011;1394;47.044;15.744;2022-12-29T00:13:33;26.63;;;3.63;;
2772;SDS011;1394;47.044;15.744;2022-12-29T00:16:20;26.00;;;3.17;;
2772;SDS011;1394;47.044;15.744;2022-12-29T00:18:48;26.80;;;4.10;;
2772;SDS011;1394;47.044;15.744;2022-12-29T00:21:19;27.20;;;3.57;;
2772;SDS011;1394;47.044;15.744;2022-12-29T00:24:05;26.97;;;3.60;;
2772;SDS011;1394;47.044;15.744;2022-12-29T00:26:50;26.70;;;3.40;;
2772;SDS011;1394;47.044;15.744;2022-12-29T00:29:37;26.50;;;3.60;;
2772;SDS011;1394;47.044;15.744;2022-12-29T00:32:23;26.80;;;3.60;;
2772;SDS011;1394;47.044;15.744;2022-12-29T00:35:08;26.43;;;3.43;;
2772;SDS011;1394;47.044;15.744;2022-12-29T00:37:36;25.97;;;3.23;;
2772;SDS011;1394;47.044;15.744;2022-12-29T00:40:24;26.87;;;3.30;;
2772;SDS011;1394;47.044;15.744;2022-12-29T00:43:10;25.60;;;3.00;;
2772;SDS011;1394;47.044;15.744;2022-12-29T00:45:54;26.43;;;3.20;;
2772;SDS011;1394;47.044;15.744;2022-12-29T00:48:23;26.40;;;3.40;;
2772;SDS011;1394;47.044;15.744;2022-12-29T00:51:08;26.57;;;3.40;;
2772;SDS011;1394;47.044;15.744;2022-12-29T00:53:49;26.47;;;3.40;;
2772;SDS011;1394;47.044;15.744;2022-12-29T00:56:20;26.33;;;3.73;;
2772;SDS011;1394;47.044;15.744;2022-12-29T00:58:48;26.97;;;3.53;;
2772;SDS011;1394;47.044;15.744;2022-12-29T01:01:15;25.97;;;2.80;;
2772;SDS011;1394;47.044;15.744;2022-12-29T01:03:43;26.23;;;3.33;;
2772;SDS011;1394;47.044;15.744;2022-12-29T01:06:11;26.17;;;2.97;;
2772;SDS011;1394;47.044;15.744;2022-12-29T01:08:38;26.50;;;3.37;;
2772;SDS011;1394;47.044;15.744;2022-12-29T01:11:06;26.43;;;3.20;;
2772;SDS011;1394;47.044;15.744;2022-12-29T01:13:34;26.60;;;3.10;;
2772;SDS011;1394;47.044;15.744;2022-12-29T01:16:02;26.67;;;3.20;;
2772;SDS011;1394;47.044;15.744;2022-12-29T01:18:32;26.70;;;3.57;;
2772;SDS011;1394;47.044;15.744;2022-12-29T01:21:03;25.47;;;2.67;;
2772;SDS011;1394;47.044;15.744;2022-12-29T01:23:31;26.20;;;3.37;;
2772;SDS011;1394;47.044;15.744;2022-12-29T01:26:07;26.03;;;2.93;;
2772;SDS011;1394;47.044;15.744;2022-12-29T01:28:35;26.03;;;3.10;;
2772;SDS011;1394;47.044;15.744;2022-12-29T01:31:05;25.53;;;2.77;;
2772;SDS011;1394;47.044;15.744;2022-12-29T01:33:35;25.77;;;2.70;;
2772;SDS011;1394;47.044;15.744;2022-12-29T01:36:05;26.20;;;2.93;;
2772;SDS011;1394;47.044;15.744;2022-12-29T01:38:32;26.93;;;3.53;;
2772;SDS011;1394;47.044;15.744;2022-12-29T01:41:00;27.30;;;3.73;;
2772;SDS011;1394;47.044;15.744;2022-12-29T01:43:38;27.27;;;3.07;;
2772;SDS011;1394;47.044;15.744;2022-12-29T01:46:08;26.53;;;3.27;;
2772;SDS011;1394;47.044;15.744;2022-12-29T01:48:41;26.07;;;3.17;;
2772;SDS011;1394;47.044;15.744;2022-12-29T01:51:10;26.20;;;3.00;;
2772;SDS011;1394;47.044;15.744;2022-12-29T01:53:39;26.00;;;3.03;;
2772;SDS011;1394;47.044;15.744;2022-12-29T01:56:07;26.73;;;2.77;;
2772;SDS011;1394;47.044;15.744;2022-12-29T01:58:39;27.90;;;3.30;;
2772;SDS011;1394;47.044;15.744;2022-12-29T02:01:08;27.33;;;3.30;;
2772;SDS011;1394;47.044;15.744;2022-12-29T02:03:36;26.90;;;3.20;;
2772;SDS011;1394;47.044;15.744;2022-12-29T02:06:04;26.47;;;3.43;;
2772;SDS011;1394;47.044;15.744;2022-12-29T02:08:36;27.20;;;3.03;;
2772;SDS011;1394;47.044;15.744;2022-12-29T02:11:04;26.33;;;3.30;;
2772;SDS011;1394;47.044;15.744;2022-12-29T02:13:32;26.40;;;3.03;;
2772;SDS011;1394;47.044;15.744;2022-12-29T02:16:05;26.93;;;2.83;;
2772;SDS011;1394;47.044;15.744;2022-12-29T02:18:37;27.00;;;3.90;;
2772;SDS011;1394;47.044;15.744;2022-12-29T02:21:15;26.40;;;3.50;;
2772;SDS011;1394;47.044;15.744;2022-12-29T02:26:43;26.33;;;2.97;;
2772;SDS011;1394;47.044;15.744;2022-12-29T02:32:09;26.00;;;2.83;;
2772;SDS011;1394;47.044;15.744;2022-12-29T02:37:23;27.90;;;3.30;;
2772;SDS011;1394;47.044;15.744;2022-12-29T02:39:54;27.20;;;3.27;;
2772;SDS011;1394;47.044;15.744;2022-12-29T02:42:29;26.80;;;2.87;;
2772;SDS011;1394;47.044;15.744;2022-12-29T02:45:03;26.50;;;3.00;;
2772;SDS011;1394;47.044;15.744;2022-12-29T02:47:36;27.97;;;3.40;;
2772;SDS011;1394;47.044;15.744;2022-12-29T02:50:06;26.80;;;3.13;;
2772;SDS011;1394;47.044;15.744;2022-12-29T02:52:35;26.67;;;3.00;;
2772;SDS011;1394;47.044;15.744;2022-12-29T02:55:05;25.80;;;2.60;;
2772;SDS011;1394;47.044;15.744;2022-12-29T02:57:33;25.60;;;2.60;;
2772;SDS011;1394;47.044;15.744;2022-12-29T03:00:02;25.93;;;2.90;;
2772;SDS011;1394;47.044;15.744;2022-12-29T03:05:22;25.80;;;2.63;;
2772;SDS011;1394;47.044;15.744;2022-12-29T03:07:55;25.50;;;2.90;;
2772;SDS011;1394;47.044;15.744;2022-12-29T03:10:30;26.13;;;3.07;;
2772;SDS011;1394;47.044;15.744;2022-12-29T03:13:01;26.40;;;2.53;;
2772;SDS011;1394;47.044;15.744;2022-12-29T03:15:49;25.80;;;3.00;;
2772;SDS011;1394;47.044;15.744;2022-12-29T03:18:39;25.83;;;2.80;;
2772;SDS011;1394;47.044;15.744;2022-12-29T03:21:12;25.93;;;2.73;;
2772;SDS011;1394;47.044;15.744;2022-12-29T03:23:44;25.50;;;2.50;;
2772;SDS011;1394;47.044;15.744;2022-12-29T03:26:16;26.30;;;2.93;;
2772;SDS011;1394;47.044;15.744;2022-12-29T03:28:52;26.00;;;3.10;;
2772;SDS011;1394;47.044;15.744;2022-12-29T03:31:22;26.47;;;3.23;;
2772;SDS011;1394;47.044;15.744;2022-12-29T03:33:50;26.93;;;3.10;;
2772;SDS011;1394;47.044;15.744;2022-12-29T03:36:26;26.00;;;3.03;;
2772;SDS011;1394;47.044;15.744;2022-12-29T03:38:58;26.57;;;2.80;;
2772;SDS011;1394;47.044;15.744;2022-12-29T03:41:28;25.40;;;2.70;;
2772;SDS011;1394;47.044;15.744;2022-12-29T03:43:57;26.07;;;3.20;;
2772;SDS011;1394;47.044;15.744;2022-12-29T03:46:24;27.57;;;4.00;;
2772;SDS011;1394;47.044;15.744;2022-12-29T03:48:51;26.40;;;3.67;;
2772;SDS011;1394;47.044;15.744;2022-12-29T03:51:24;26.77;;;3.30;;
2772;SDS011;1394;47.044;15.744;2022-12-29T03:53:52;25.83;;;2.73;;
2772;SDS011;1394;47.044;15.744;2022-12-29T03:56:19;25.57;;;2.83;;
2772;SDS011;1394;47.044;15.744;2022-12-29T03:58:46;25.60;;;2.90;;
2772;SDS011;1394;47.044;15.744;2022-12-29T04:01:16;26.13;;;2.90;;
2772;SDS011;1394;47.044;15.744;2022-12-29T04:03:43;26.30;;;3.13;;
2772;SDS011;1394;47.044;15.744;2022-12-29T04:06:14;26.30;;;3.00;;
2772;SDS011;1394;47.044;15.744;2022-12-29T04:08:47;25.50;;;2.53;;
2772;SDS011;1394;47.044;15.744;2022-12-29T04:11:14;25.87;;;2.60;;
2772;SDS011;1394;47.044;15.744;2022-12-29T04:13:41;25.90;;;2.80;;
2772;SDS011;1394;47.044;15.744;2022-12-29T04:16:09;26.30;;;3.37;;
2772;SDS011;1394;47.044;15.744;2022-12-29T04:18:36;26.60;;;3.40;;
2772;SDS011;1394;47.044;15.744;2022-12-29T04:21:06;26.57;;;3.67;;
2772;SDS011;1394;47.044;15.744;2022-12-29T04:23:37;26.93;;;3.50;;
2772;SDS011;1394;47.044;15.744;2022-12-29T04:26:07;27.30;;;4.00;;
2772;SDS011;1394;47.044;15.744;2022-12-29T04:28:36;26.37;;;2.83;;
2772;SDS011;1394;47.044;15.744;2022-12-29T04:31:07;26.03;;;2.90;;
2772;SDS011;1394;47.044;15.744;2022-12-29T04:33:34;26.60;;;3.30;;
2772;SDS011;1394;47.044;15.744;2022-12-29T04:36:01;26.73;;;3.17;;
2772;SDS011;1394;47.044;15.744;2022-12-29T04:38:31;26.80;;;3.57;;
2772;SDS011;1394;47.044;15.744;2022-12-29T04:40:58;26.33;;;2.87;;
2772;SDS011;1394;47.044;15.744;2022-12-29T04:43:27;25.57;;;2.50;;
2772;SDS011;1394;47.044;15.744;2022-12-29T04:45:54;25.33;;;2.40;;
2772;SDS011;1394;47.044;15.744;2022-12-29T04:48:22;25.77;;;2.57;;
2772;SDS011;1394;47.044;15.744;2022-12-29T04:50:49;25.80;;;2.73;;
2772;SDS011;1394;47.044;15.744;2022-12-29T04:53:16;25.30;;;2.53;;
2772;SDS011;1394;47.044;15.744;2022-12-29T04:55:48;25.70;;;2.63;;
2772;SDS011;1394;47.044;15.744;2022-12-29T04:58:15;26.87;;;3.57;;
2772;SDS011;1394;47.044;15.744;2022-12-29T05:00:44;26.40;;;3.30;;
2772;SDS011;1394;47.044;15.744;2022-12-29T05:03:11;26.17;;;3.20;;
2772;SDS011;1394;47.044;15.744;2022-12-29T05:05:38;27.10;;;3.83;;
2772;SDS011;1394;47.044;15.744;2022-12-29T05:08:05;26.27;;;3.03;;
2772;SDS011;1394;47.044;15.744;2022-12-29T05:10:33;26.50;;;3.23;;
2772;SDS011;1394;47.044;15.744;2022-12-29T05:13:00;26.07;;;2.80;;
2772;SDS011;1394;47.044;15.744;2022-12-29T05:15:27;25.50;;;2.67;;
2772;SDS011;1394;47.044;15.744;2022-12-29T05:17:56;25.97;;;3.13;;
2772;SDS011;1394;47.044;15.744;2022-12-29T05:20:24;25.60;;;2.57;;
2772;SDS011;1394;47.044;15.744;2022-12-29T05:22:51;25.97;;;2.77;;
2772;SDS011;1394;47.044;15.744;2022-12-29T05:25:18;27.60;;;2.90;;
2772;SDS011;1394;47.044;15.744;2022-12-29T05:27:46;26.30;;;2.87;;
2772;SDS011;1394;47.044;15.744;2022-12-29T05:30:13;28.20;;;2.97;;
2772;SDS011;1394;47.044;15.744;2022-12-29T05:32:40;25.87;;;3.00;;
2772;SDS011;1394;47.044;15.744;2022-12-29T05:35:09;25.90;;;2.50;;
2772;SDS011;1394;47.044;15.744;2022-12-29T05:37:36;28.00;;;3.10;;
2772;SDS011;1394;47.044;15.744;2022-12-29T05:40:04;26.23;;;2.90;;
2772;SDS011;1394;47.044;15.744;2022-12-29T05:42:31;26.00;;;3.03;;
2772;SDS011;1394;47.044;15.744;2022-12-29T05:44:59;26.13;;;3.07;;
2772;SDS011;1394;47.044;15.744;2022-12-29T05:47:26;25.90;;;2.67;;
2772;SDS011;1394;47.044;15.744;2022-12-29T05:49:54;25.50;;;2.80;;
2772;SDS011;1394;47.044;15.744;2022-12-29T05:52:22;26.30;;;2.93;;
2772;SDS011;1394;47.044;15.744;2022-12-29T05:54:50;26.10;;;3.10;;
2772;SDS011;1394;47.044;15.744;2022-12-29T05:57:18;26.20;;;3.33;;
2772;SDS011;1394;47.044;15.744;2022-12-29T05:59:45;25.13;;;2.67;;
2772;SDS011;1394;47.044;15.744;2022-12-29T06:02:12;26.00;;;2.83;;
2772;SDS011;1394;47.044;15.744;2022-12-29T06:04:39;26.30;;;3.70;;
2772;SDS011;1394;47.044;15.744;2022-12-29T06:07:06;25.60;;;2.80;;
2772;SDS011;1394;47.044;15.744;2022-12-29T06:09:35;26.40;;;3.37;;
2772;SDS011;1394;47.044;15.744;2022-12-29T06:12:03;26.23;;;3.47;;
2772;SDS011;1394;47.044;15.744;2022-12-29T06:14:30;26.40;;;3.90;;
2772;SDS011;1394;47.044;15.744;2022-12-29T06:16:57;27.80;;;3.70;;
2772;SDS011;1394;47.044;15.744;2022-12-29T06:19:24;26.80;;;3.30;;
2772;SDS011;1394;47.044;15.744;2022-12-29T06:21:52;26.20;;;3.30;;
2772;SDS011;1394;47.044;15.744;2022-12-29T06:24:20;26.10;;;3.13;;
2772;SDS011;1394;47.044;15.744;2022-12-29T06:26:48;25.83;;;2.97;;
2772;SDS011;1394;47.044;15.744;2022-12-29T06:29:16;26.70;;;2.90;;
2772;SDS011;1394;47.044;15.744;2022-12-29T06:31:45;25.60;;;2.70;;
2772;SDS011;1394;47.044;15.744;2022-12-29T06:34:16;26.87;;;3.30;;
2772;SDS011;1394;47.044;15.744;2022-12-29T06:36:44;26.37;;;2.73;;
2772;SDS011;1394;47.044;15.744;2022-12-29T06:39:11;26.47;;;2.60;;
2772;SDS011;1394;47.044;15.744;2022-12-29T06:41:39;25.60;;;2.70;;
2772;SDS011;1394;47.044;15.744;2022-12-29T06:44:08;26.03;;;2.60;;
2772;SDS011;1394;47.044;15.744;2022-12-29T06:46:39;25.97;;;2.67;;
2772;SDS011;1394;47.044;15.744;2022-12-29T06:49:06;27.00;;;3.40;;
2772;SDS011;1394;47.044;15.744;2022-12-29T06:51:34;26.97;;;3.57;;
2772;SDS011;1394;47.044;15.744;2022-12-29T06:54:01;27.40;;;4.83;;
2772;SDS011;1394;47.044;15.744;2022-12-29T06:56:28;27.77;;;5.10;;
2772;SDS011;1394;47.044;15.744;2022-12-29T06:58:58;27.30;;;4.63;;
2772;SDS011;1394;47.044;15.744;2022-12-29T07:01:27;27.07;;;4.30;;
2772;SDS011;1394;47.044;15.744;2022-12-29T07:03:55;27.13;;;4.30;;
2772;SDS011;1394;47.044;15.744;2022-12-29T07:06:22;27.40;;;4.40;;
2772;SDS011;1394;47.044;15.744;2022-12-29T07:09:08;26.77;;;3.57;;
2772;SDS011;1394;47.044;15.744;2022-12-29T07:11:36;27.27;;;4.03;;
2772;SDS011;1394;47.044;15.744;2022-12-29T07:14:04;26.37;;;3.50;;
2772;SDS011;1394;47.044;15.744;2022-12-29T07:16:33;27.47;;;4.20;;
2772;SDS011;1394;47.044;15.744;2022-12-29T07:19:01;26.80;;;3.90;;
2772;SDS011;1394;47.044;15.744;2022-12-29T07:21:28;27.30;;;4.47;;
2772;SDS011;1394;47.044;15.744;2022-12-29T07:23:55;26.07;;;3.37;;
2772;SDS011;1394;47.044;15.744;2022-12-29T07:26:23;25.90;;;2.90;;
2772;SDS011;1394;47.044;15.744;2022-12-29T07:28:50;26.40;;;3.63;;
2772;SDS011;1394;47.044;15.744;2022-12-29T07:31:21;26.70;;;3.00;;
2772;SDS011;1394;47.044;15.744;2022-12-29T07:33:50;26.17;;;2.90;;
2772;SDS011;1394;47.044;15.744;2022-12-29T07:36:17;26.80;;;2.87;;
2772;SDS011;1394;47.044;15.744;2022-12-29T07:38:45;26.07;;;2.90;;
2772;SDS011;1394;47.044;15.744;2022-12-29T07:41:15;26.40;;;2.93;;
2772;SDS011;1394;47.044;15.744;2022-12-29T07:43:46;26.17;;;3.13;;
2772;SDS011;1394;47.044;15.744;2022-12-29T07:46:13;26.00;;;3.00;;
2772;SDS011;1394;47.044;15.744;2022-12-29T07:48:42;26.43;;;3.10;;
2772;SDS011;1394;47.044;15.744;2022-12-29T07:51:12;26.47;;;2.80;;
2772;SDS011;1394;47.044;15.744;2022-12-29T07:53:40;26.03;;;3.20;;
2772;SDS011;1394;47.044;15.744;2022-12-29T07:56:07;25.53;;;2.77;;
2772;SDS011;1394;47.044;15.744;2022-12-29T07:58:34;25.80;;;2.93;;
2772;SDS011;1394;47.044;15.744;2022-12-29T08:01:01;26.00;;;3.00;;
2772;SDS011;1394;47.044;15.744;2022-12-29T08:03:30;26.57;;;3.20;;
2772;SDS011;1394;47.044;15.744;2022-12-29T08:06:01;25.60;;;2.67;;
2772;SDS011;1394;47.044;15.744;2022-12-29T08:08:30;26.33;;;3.33;;
2772;SDS011;1394;47.044;15.744;2022-12-29T08:10:57;27.23;;;3.70;;
2772;SDS011;1394;47.044;15.744;2022-12-29T08:13:37;26.87;;;3.47;;
2772;SDS011;1394;47.044;15.744;2022-12-29T08:16:04;26.23;;;3.40;;
2772;SDS011;1394;47.044;15.744;2022-12-29T08:18:31;27.43;;;4.57;;
2772;SDS011;1394;47.044;15.744;2022-12-29T08:21:01;26.27;;;3.57;;
2772;SDS011;1394;47.044;15.744;2022-12-29T08:23:30;26.43;;;3.30;;
2772;SDS011;1394;47.044;15.744;2022-12-29T08:25:58;26.03;;;3.30;;
2772;SDS011;1394;47.044;15.744;2022-12-29T08:28:26;25.77;;;2.73;;
2772;SDS011;1394;47.044;15.744;2022-12-29T08:31:10;26.60;;;3.70;;
2772;SDS011;1394;47.044;15.744;2022-12-29T08:33:37;26.27;;;3.83;;
2772;SDS011;1394;47.044;15.744;2022-12-29T08:36:05;26.60;;;4.00;;
2772;SDS011;1394;47.044;15.744;2022-12-29T08:38:34;27.10;;;4.20;;
2772;SDS011;1394;47.044;15.744;2022-12-29T08:41:01;27.00;;;4.30;;
2772;SDS011;1394;47.044;15.744;2022-12-29T08:43:29;25.33;;;2.50;;
2772;SDS011;1394;47.044;15.744;2022-12-29T08:45:57;25.83;;;2.67;;
2772;SDS011;1394;47.044;15.744;2022-12-29T08:48:24;26.90;;;2.67;;
2772;SDS011;1394;47.044;15.744;2022-12-29T08:50:52;25.57;;;2.53;;
2772;SDS011;1394;47.044;15.744;2022-12-29T08:53:20;25.90;;;2.80;;
2772;SDS011;1394;47.044;15.744;2022-12-29T08:55:55;25.60;;;2.60;;
2772;SDS011;1394;47.044;15.744;2022-12-29T08:58:23;25.40;;;2.50;;
2772;SDS011;1394;47.044;15.744;2022-12-29T09:00:51;25.37;;;2.37;;
2772;SDS011;1394;47.044;15.744;2022-12-29T09:03:19;26.00;;;2.90;;
2772;SDS011;1394;47.044;15.744;2022-12-29T09:05:47;25.60;;;2.50;;
2772;SDS011;1394;47.044;15.744;2022-12-29T09:08:15;25.83;;;2.97;;
2772;SDS011;1394;47.044;15.744;2022-12-29T09:10:42;26.43;;;3.30;;
2772;SDS011;1394;47.044;15.744;2022-12-29T09:13:12;26.00;;;2.53;;
2772;SDS011;1394;47.044;15.744;2022-12-29T09:15:39;25.40;;;2.40;;
2772;SDS011;1394;47.044;15.744;2022-12-29T09:18:07;25.37;;;2.40;;
2772;SDS011;1394;47.044;15.744;2022-12-29T09:20:35;25.67;;;3.13;;
2772;SDS011;1394;47.044;15.744;2022-12-29T09:23:03;25.10;;;2.07;;
2772;SDS011;1394;47.044;15.744;2022-12-29T09:25:31;25.97;;;2.60;;
2772;SDS011;1394;47.044;15.744;2022-12-29T09:27:58;26.40;;;3.10;;
2772;SDS011;1394;47.044;15.744;2022-12-29T09:30:29;25.90;;;2.70;;
2772;SDS011;1394;47.044;15.744;2022-12-29T09:32:56;26.47;;;2.77;;
2772;SDS011;1394;47.044;15.744;2022-12-29T09:35:23;25.93;;;2.67;;
2772;SDS011;1394;47.044;15.744;2022-12-29T09:37:51;26.07;;;2.57;;
2772;SDS011;1394;47.044;15.744;2022-12-29T09:40:22;25.57;;;2.40;;
2772;SDS011;1394;47.044;15.744;2022-12-29T09:42:58;26.50;;;3.00;;
2772;SDS011;1394;47.044;15.744;2022-12-29T09:45:29;25.60;;;2.47;;
2772;SDS011;1394;47.044;15.744;2022-12-29T09:47:59;25.87;;;2.80;;
2772;SDS011;1394;47.044;15.744;2022-12-29T09:50:28;25.93;;;2.60;;
2772;SDS011;1394;47.044;15.744;2022-12-29T09:52:58;25.77;;;2.80;;
2772;SDS011;1394;47.044;15.744;2022-12-29T09:55:30;25.83;;;2.77;;
2772;SDS011;1394;47.044;15.744;2022-12-29T09:58:02;25.90;;;3.10;;
2772;SDS011;1394;47.044;15.744;2022-12-29T10:00:36;26.10;;;2.50;;
2772;SDS011;1394;47.044;15.744;2022-12-29T10:03:05;25.80;;;2.60;;
2772;SDS011;1394;47.044;15.744;2022-12-29T10:05:35;26.27;;;3.07;;
2772;SDS011;1394;47.044;15.744;2022-12-29T10:08:10;25.77;;;2.60;;
2772;SDS011;1394;47.044;15.744;2022-12-29T10:10:43;27.33;;;3.10;;
2772;SDS011;1394;47.044;15.744;2022-12-29T10:13:18;27.23;;;3.50;;
2772;SDS011;1394;47.044;15.744;2022-12-29T10:15:52;28.17;;;3.63;;
2772;SDS011;1394;47.044;15.744;2022-12-29T10:18:26;29.77;;;5.17;;
2772;SDS011;1394;47.044;15.744;2022-12-29T10:20:57;28.87;;;4.80;;
2772;SDS011;1394;47.044;15.744;2022-12-29T10:23:27;27.07;;;3.50;;
2772;SDS011;1394;47.044;15.744;2022-12-29T10:25:55;25.73;;;2.80;;
2772;SDS011;1394;47.044;15.744;2022-12-29T10:28:24;26.53;;;3.07;;
2772;SDS011;1394;47.044;15.744;2022-12-29T10:30:53;26.27;;;3.03;;
2772;SDS011;1394;47.044;15.744;2022-12-29T10:33:25;26.33;;;3.23;;
2772;SDS011;1394;47.044;15.744;2022-12-29T10:35:55;26.90;;;3.37;;
2772;SDS011;1394;47.044;15.744;2022-12-29T10:38:23;25.87;;;2.80;;
2772;SDS011;1394;47.044;15.744;2022-12-29T10:40:53;28.43;;;3.63;;
2772;SDS011;1394;47.044;15.744;2022-12-29T10:43:24;26.80;;;3.60;;
2772;SDS011;1394;47.044;15.744;2022-12-29T10:45:51;26.23;;;3.30;;
2772;SDS011;1394;47.044;15.744;2022-12-29T10:48:21;26.37;;;3.60;;
2772;SDS011;1394;47.044;15.744;2022-12-29T10:50:49;26.60;;;3.10;;
2772;SDS011;1394;47.044;15.744;2022-12-29T10:53:18;26.20;;;2.83;;
2772;SDS011;1394;47.044;15.744;2022-12-29T10:55:46;26.07;;;2.57;;
2772;SDS011;1394;47.044;15.744;2022-12-29T10:58:13;29.10;;;3.23;;
2772;SDS011;1394;47.044;15.744;2022-12-29T11:00:42;26.13;;;3.27;;
2772;SDS011;1394;47.044;15.744;2022-12-29T11:03:25;26.80;;;3.03;;
2772;SDS011;1394;47.044;15.744;2022-12-29T11:06:00;26.63;;;3.30;;
2772;SDS011;1394;47.044;15.744;2022-12-29T11:08:30;27.00;;;3.00;;
2772;SDS011;1394;47.044;15.744;2022-12-29T11:10:58;26.63;;;2.80;;
2772;SDS011;1394;47.044;15.744;2022-12-29T11:13:27;26.97;;;3.37;;
2772;SDS011;1394;47.044;15.744;2022-12-29T11:15:56;26.33;;;3.00;;
2772;SDS011;1394;47.044;15.744;2022-12-29T11:18:26;26.27;;;2.97;;
2772;SDS011;1394;47.044;15.744;2022-12-29T11:20:55;26.97;;;3.60;;
2772;SDS011;1394;47.044;15.744;2022-12-29T11:23:26;28.17;;;4.27;;
2772;SDS011;1394;47.044;15.744;2022-12-29T11:29:05;25.83;;;2.73;;
2772;SDS011;1394;47.044;15.744;2022-12-29T11:31:39;25.57;;;2.60;;
2772;SDS011;1394;47.044;15.744;2022-12-29T11:34:08;26.30;;;2.63;;
2772;SDS011;1394;47.044;15.744;2022-12-29T11:36:35;25.47;;;2.23;;
2772;SDS011;1394;47.044;15.744;2022-12-29T11:39:02;26.27;;;2.63;;
2772;SDS011;1394;47.044;15.744;2022-12-29T11:41:30;26.10;;;2.60;;
2772;SDS011;1394;47.044;15.744;2022-12-29T11:43:59;26.10;;;2.73;;
2772;SDS011;1394;47.044;15.744;2022-12-29T11:46:27;28.07;;;4.20;;
2772;SDS011;1394;47.044;15.744;2022-12-29T11:48:56;27.80;;;4.03;;
2772;SDS011;1394;47.044;15.744;2022-12-29T11:51:27;28.10;;;4.47;;
2772;SDS011;1394;47.044;15.744;2022-12-29T11:53:56;27.50;;;4.33;;
2772;SDS011;1394;47.044;15.744;2022-12-29T11:56:32;27.20;;;4.07;;
2772;SDS011;1394;47.044;15.744;2022-12-29T12:01:42;25.47;;;2.37;;
2772;SDS011;1394;47.044;15.744;2022-12-29T12:04:11;25.40;;;2.10;;
2772;SDS011;1394;47.044;15.744;2022-12-29T12:06:43;25.40;;;1.90;;
2772;SDS011;1394;47.044;15.744;2022-12-29T12:09:14;26.07;;;2.07;;
2772;SDS011;1394;47.044;15.744;2022-12-29T12:11:43;25.83;;;2.30;;
2772;SDS011;1394;47.044;15.744;2022-12-29T12:14:11;26.23;;;2.10;;
2772;SDS011;1394;47.044;15.744;2022-12-29T12:16:41;25.80;;;2.20;;
2772;SDS011;1394;47.044;15.744;2022-12-29T12:19:12;26.47;;;2.90;;
2772;SDS011;1394;47.044;15.744;2022-12-29T12:21:43;26.40;;;2.60;;
2772;SDS011;1394;47.044;15.744;2022-12-29T12:24:20;26.30;;;2.73;;
2772;SDS011;1394;47.044;15.744;2022-12-29T12:26:55;26.60;;;2.20;;
2772;SDS011;1394;47.044;15.744;2022-12-29T12:29:24;26.30;;;2.53;;
2772;SDS011;1394;47.044;15.744;2022-12-29T12:31:53;25.27;;;1.70;;
2772;SDS011;1394;47.044;15.744;2022-12-29T12:34:24;25.43;;;2.00;;
2772;SDS011;1394;47.044;15.744;2022-12-29T12:37:04;25.60;;;2.13;;
2772;SDS011;1394;47.044;15.744;2022-12-29T12:39:39;25.90;;;2.50;;
2772;SDS011;1394;47.044;15.744;2022-12-29T12:42:15;25.43;;;1.90;;
2772;SDS011;1394;47.044;15.744;2022-12-29T12:44:45;25.60;;;2.00;;
2772;SDS011;1394;47.044;15.744;2022-12-29T12:50:12;28.70;;;2.40;;
2772;SDS011;1394;47.044;15.744;2022-12-29T12:52:47;25.20;;;1.47;;
2772;SDS011;1394;47.044;15.744;2022-12-29T12:55:30;25.90;;;1.67;;
2772;SDS011;1394;47.044;15.744;2022-12-29T12:58:02;25.70;;;1.23;;
2772;SDS011;1394;47.044;15.744;2022-12-29T13:00:32;25.30;;;1.40;;
2772;SDS011;1394;47.044;15.744;2022-12-29T13:03:04;25.33;;;1.60;;
2772;SDS011;1394;47.044;15.744;2022-12-29T13:05:35;25.00;;;1.30;;
2772;SDS011;1394;47.044;15.744;2022-12-29T13:08:19;25.20;;;1.57;;
2772;SDS011;1394;47.044;15.744;2022-12-29T13:10:50;25.17;;;1.43;;
2772;SDS011;1394;47.044;15.744;2022-12-29T13:13:27;25.50;;;1.70;;
2772;SDS011;1394;47.044;15.744;2022-12-29T13:15:58;25.87;;;1.50;;
2772;SDS011;1394;47.044;15.744;2022-12-29T13:18:30;25.23;;;1.70;;
2772;SDS011;1394;47.044;15.744;2022-12-29T13:21:00;24.73;;;1.30;;
2772;SDS011;1394;47.044;15.744;2022-12-29T13:23:32;25.30;;;2.07;;
2772;SDS011;1394;47.044;15.744;2022-12-29T13:26:05;25.80;;;1.90;;
2772;SDS011;1394;47.044;15.744;2022-12-29T13:28:37;25.67;;;1.70;;
2772;SDS011;1394;47.044;15.744;2022-12-29T13:31:12;25.30;;;1.70;;
2772;SDS011;1394;47.044;15.744;2022-12-29T13:33:44;25.00;;;1.60;;
2772;SDS011;1394;47.044;15.744;2022-12-29T13:36:20;25.50;;;2.47;;
2772;SDS011;1394;47.044;15.744;2022-12-29T13:38:51;25.97;;;2.70;;
2772;SDS011;1394;47.044;15.744;2022-12-29T13:41:21;25.97;;;2.47;;
2772;SDS011;1394;47.044;15.744;2022-12-29T13:43:51;26.70;;;3.40;;
2772;SDS011;1394;47.044;15.744;2022-12-29T13:46:21;27.70;;;3.90;;
2772;SDS011;1394;47.044;15.744;2022-12-29T13:48:50;27.63;;;4.10;;
2772;SDS011;1394;47.044;15.744;2022-12-29T13:51:18;27.40;;;4.20;;
2772;SDS011;1394;47.044;15.744;2022-12-29T13:53:54;26.90;;;3.97;;
2772;SDS011;1394;47.044;15.744;2022-12-29T13:56:24;27.17;;;3.70;;
2772;SDS011;1394;47.044;15.744;2022-12-29T13:58:53;25.60;;;2.40;;
2772;SDS011;1394;47.044;15.744;2022-12-29T14:01:22;25.50;;;2.00;;
2772;SDS011;1394;47.044;15.744;2022-12-29T14:03:54;26.40;;;2.93;;
2772;SDS011;1394;47.044;15.744;2022-12-29T14:06:23;26.10;;;2.80;;
2772;SDS011;1394;47.044;15.744;2022-12-29T14:08:53;25.40;;;1.90;;
2772;SDS011;1394;47.044;15.744;2022-12-29T14:11:22;25.43;;;1.67;;
2772;SDS011;1394;47.044;15.744;2022-12-29T14:13:51;25.30;;;1.83;;
2772;SDS011;1394;47.044;15.744;2022-12-29T14:16:29;26.50;;;2.87;;
2772;SDS011;1394;47.044;15.744;2022-12-29T14:19:03;26.80;;;2.43;;
2772;SDS011;1394;47.044;15.744;2022-12-29T14:21:30;25.57;;;1.97;;
2772;SDS011;1394;47.044;15.744;2022-12-29T14:26:47;25.50;;;1.90;;
2772;SDS011;1394;47.044;15.744;2022-12-29T14:32:00;26.37;;;2.40;;
2772;SDS011;1394;47.044;15.744;2022-12-29T14:34:29;26.83;;;2.70;;
2772;SDS011;1394;47.044;15.744;2022-12-29T14:36:57;28.23;;;3.10;;
2772;SDS011;1394;47.044;15.744;2022-12-29T14:39:35;26.37;;;2.90;;
2772;SDS011;1394;47.044;15.744;2022-12-29T14:42:06;26.13;;;1.80;;
2772;SDS011;1394;47.044;15.744;2022-12-29T14:44:45;25.10;;;1.60;;
2772;SDS011;1394;47.044;15.744;2022-12-29T14:47:16;25.47;;;1.80;;
2772;SDS011;1394;47.044;15.744;2022-12-29T14:49:46;25.67;;;1.50;;
2772;SDS011;1394;47.044;15.744;2022-12-29T14:52:15;25.50;;;1.80;;
2772;SDS011;1394;47.044;15.744;2022-12-29T14:54:48;24.90;;;1.40;;
2772;SDS011;1394;47.044;15.744;2022-12-29T14:57:22;25.50;;;1.80;;
2772;SDS011;1394;47.044;15.744;2022-12-29T14:59:54;25.07;;;1.80;;
2772;SDS011;1394;47.044;15.744;2022-12-29T15:02:33;25.53;;;2.20;;
2772;SDS011;1394;47.044;15.744;2022-12-29T15:05:03;26.30;;;2.97;;
2772;SDS011;1394;47.044;15.744;2022-12-29T15:07:32;27.00;;;3.63;;
2772;SDS011;1394;47.044;15.744;2022-12-29T15:10:03;26.67;;;4.07;;
2772;SDS011;1394;47.044;15.744;2022-12-29T15:12:36;26.93;;;4.43;;
2772;SDS011;1394;47.044;15.744;2022-12-29T15:15:17;28.40;;;5.47;;
2772;SDS011;1394;47.044;15.744;2022-12-29T15:17:44;26.53;;;3.90;;
2772;SDS011;1394;47.044;15.744;2022-12-29T15:20:17;27.37;;;3.40;;
2772;SDS011;1394;47.044;15.744;2022-12-29T15:22:48;28.37;;;4.73;;
2772;SDS011;1394;47.044;15.744;2022-12-29T15:25:17;27.20;;;4.27;;
2772;SDS011;1394;47.044;15.744;2022-12-29T15:27:49;27.47;;;4.10;;
2772;SDS011;1394;47.044;15.744;2022-12-29T15:30:17;29.20;;;4.93;;
2772;SDS011;1394;47.044;15.744;2022-12-29T15:32:45;27.70;;;4.33;;